FIN362 LFPG-EFHK
Flight info
| Callsign | FIN362 |
|---|---|
| Flight time | 2h 24m |
| Altitude | 38000 |
| Route | NURMO DCT CMB DCT VEKIN DCT ADUTO N873 FERDI/N0464F400 N873 VICOT/N0459F390 DCT SUSET DCT ALASA DCT INRER DCT GOTAL DCT ALAMI DCT OKEVU DCT EVADI Y370 DIVAM |
| Aircraft | A333/H-SDE3GHIJ2J3J5M1RVWXY/LB2D1 |
Departure
| Time | 2026-05-08 11:27 |
|---|---|
| Airport | Charles de Gaulle International Airport (LFPG) |
Arrival
| Time | 2026-05-08 13:51 |
|---|---|
| Airport | Helsinki Vantaa Airport (EFHK) |
| Time | Latitude | Longitude | Altitude | Speed | Heading |
|---|---|---|---|---|---|
| 2026-05-08 10:54 | 49.00135 | 2.57627 | 349 ft | 0 kts | 356° |
| 2026-05-08 11:15 | 49.00133 | 2.57628 | 349 ft | 1 kts | 356° |
| 2026-05-08 11:16 | 49.00118 | 2.57629 | 349 ft | 2 kts | 2° |
| 2026-05-08 11:16 | 49.00103 | 2.57627 | 349 ft | 2 kts | 17° |
| 2026-05-08 11:16 | 49.00089 | 2.57619 | 349 ft | 2 kts | 28° |
| 2026-05-08 11:16 | 49.00077 | 2.57607 | 350 ft | 2 kts | 40° |
| 2026-05-08 11:17 | 49.00066 | 2.57591 | 351 ft | 2 kts | 53° |
| 2026-05-08 11:17 | 49.00058 | 2.57572 | 351 ft | 2 kts | 65° |
| 2026-05-08 11:17 | 49.00053 | 2.57551 | 352 ft | 2 kts | 77° |
| 2026-05-08 11:17 | 49.00051 | 2.57535 | 352 ft | 0 kts | 85° |
| 2026-05-08 11:18 | 49.00051 | 2.57531 | 352 ft | 0 kts | 86° |
| 2026-05-08 11:18 | 49.00050 | 2.57531 | 352 ft | 0 kts | 86° |
| 2026-05-08 11:20 | 49.00051 | 2.57537 | 352 ft | 3 kts | 86° |
| 2026-05-08 11:20 | 49.00056 | 2.57664 | 348 ft | 15 kts | 94° |
| 2026-05-08 11:21 | 48.99999 | 2.57717 | 347 ft | 11 kts | 228° |
| 2026-05-08 11:21 | 48.99970 | 2.57614 | 350 ft | 9 kts | 268° |
| 2026-05-08 11:21 | 48.99968 | 2.57508 | 353 ft | 11 kts | 266° |
| 2026-05-08 11:21 | 48.99960 | 2.57357 | 356 ft | 16 kts | 265° |
| 2026-05-08 11:22 | 48.99950 | 2.57163 | 356 ft | 17 kts | 266° |
| 2026-05-08 11:22 | 48.99898 | 2.57011 | 355 ft | 17 kts | 212° |
| 2026-05-08 11:22 | 48.99844 | 2.56864 | 352 ft | 0 kts | 263° |
| 2026-05-08 11:22 | 48.99843 | 2.56846 | 351 ft | 5 kts | 263° |
| 2026-05-08 11:23 | 48.99836 | 2.56739 | 349 ft | 15 kts | 266° |
| 2026-05-08 11:23 | 48.99824 | 2.56520 | 347 ft | 22 kts | 266° |
| 2026-05-08 11:23 | 48.99811 | 2.56265 | 342 ft | 25 kts | 265° |
| 2026-05-08 11:23 | 48.99799 | 2.55988 | 337 ft | 27 kts | 269° |
| 2026-05-08 11:24 | 48.99751 | 2.55822 | 336 ft | 11 kts | 201° |
| 2026-05-08 11:24 | 48.99685 | 2.55828 | 337 ft | 0 kts | 146° |
| 2026-05-08 11:24 | 48.99661 | 2.55839 | 338 ft | 11 kts | 165° |
| 2026-05-08 11:25 | 48.99614 | 2.55901 | 338 ft | 0 kts | 103° |
| 2026-05-08 11:25 | 48.99610 | 2.55920 | 338 ft | 3 kts | 105° |
| 2026-05-08 11:25 | 48.99609 | 2.55936 | 338 ft | 0 kts | 93° |
| 2026-05-08 11:26 | 48.99609 | 2.55940 | 338 ft | 3 kts | 93° |
| 2026-05-08 11:27 | 48.99622 | 2.56258 | 341 ft | 64 kts | 86° |
| 2026-05-08 11:27 | 48.99676 | 2.57290 | 348 ft | 128 kts | 85° |
| 2026-05-08 11:27 | 48.99758 | 2.58921 | 431 ft | 172 kts | 86° |
| 2026-05-08 11:27 | 48.99834 | 2.60711 | 1136 ft | 168 kts | 87° |
| 2026-05-08 11:28 | 48.99921 | 2.62454 | 1999 ft | 158 kts | 84° |
| 2026-05-08 11:28 | 49.00016 | 2.64121 | 2341 ft | 166 kts | 85° |
| 2026-05-08 11:28 | 49.00120 | 2.65948 | 2634 ft | 178 kts | 85° |
| 2026-05-08 11:28 | 49.00233 | 2.67940 | 2883 ft | 196 kts | 85° |
| 2026-05-08 11:29 | 49.00358 | 2.70145 | 3174 ft | 219 kts | 85° |
| 2026-05-08 11:29 | 49.00484 | 2.72558 | 3639 ft | 235 kts | 85° |
| 2026-05-08 11:29 | 49.00618 | 2.75136 | 4164 ft | 252 kts | 85° |
| 2026-05-08 11:29 | 49.00760 | 2.77870 | 4924 ft | 263 kts | 85° |
| 2026-05-08 11:30 | 49.00904 | 2.80671 | 5756 ft | 265 kts | 85° |
| 2026-05-08 11:30 | 49.01071 | 2.83503 | 6532 ft | 268 kts | 80° |
| 2026-05-08 11:30 | 49.01813 | 2.86116 | 7189 ft | 276 kts | 52° |
| 2026-05-08 11:30 | 49.03330 | 2.87949 | 7914 ft | 281 kts | 24° |
| 2026-05-08 11:31 | 49.05234 | 2.88519 | 8619 ft | 285 kts | 357° |
| 2026-05-08 11:31 | 49.07201 | 2.87817 | 9347 ft | 288 kts | 344° |
| 2026-05-08 11:31 | 49.09182 | 2.87253 | 10078 ft | 292 kts | 351° |
| 2026-05-08 11:31 | 49.11229 | 2.86863 | 10594 ft | 304 kts | 353° |
| 2026-05-08 11:32 | 49.13427 | 2.86501 | 10943 ft | 323 kts | 353° |
| 2026-05-08 11:32 | 49.15749 | 2.86134 | 11246 ft | 342 kts | 354° |
| 2026-05-08 11:32 | 49.18223 | 2.85746 | 11531 ft | 362 kts | 354° |
| 2026-05-08 11:32 | 49.20758 | 2.85349 | 12034 ft | 372 kts | 354° |
| 2026-05-08 11:33 | 49.23402 | 2.84935 | 12835 ft | 375 kts | 354° |
| 2026-05-08 11:33 | 49.26028 | 2.84522 | 13530 ft | 379 kts | 353° |
| 2026-05-08 11:33 | 49.28693 | 2.84103 | 14240 ft | 383 kts | 353° |
| 2026-05-08 11:33 | 49.31385 | 2.83680 | 14945 ft | 387 kts | 353° |
| 2026-05-08 11:34 | 49.34079 | 2.83255 | 15623 ft | 390 kts | 353° |
| 2026-05-08 11:34 | 49.36820 | 2.82823 | 16264 ft | 395 kts | 353° |
| 2026-05-08 11:34 | 49.39604 | 2.82384 | 16900 ft | 398 kts | 353° |
| 2026-05-08 11:34 | 49.42384 | 2.81944 | 17540 ft | 402 kts | 353° |
| 2026-05-08 11:35 | 49.45177 | 2.81502 | 18150 ft | 405 kts | 353° |
| 2026-05-08 11:35 | 49.48045 | 2.81049 | 18765 ft | 409 kts | 353° |
| 2026-05-08 11:35 | 49.50863 | 2.80602 | 19351 ft | 412 kts | 353° |
| 2026-05-08 11:35 | 49.53795 | 2.80136 | 19922 ft | 416 kts | 353° |
| 2026-05-08 11:36 | 49.56705 | 2.79673 | 20496 ft | 419 kts | 353° |
| 2026-05-08 11:36 | 49.59637 | 2.79206 | 21022 ft | 423 kts | 353° |
| 2026-05-08 11:36 | 49.62599 | 2.78734 | 21574 ft | 426 kts | 353° |
| 2026-05-08 11:36 | 49.65582 | 2.78259 | 22065 ft | 430 kts | 353° |
| 2026-05-08 11:37 | 49.68607 | 2.77774 | 22575 ft | 433 kts | 353° |
| 2026-05-08 11:37 | 49.71600 | 2.77296 | 23075 ft | 436 kts | 353° |
| 2026-05-08 11:37 | 49.74691 | 2.76801 | 23555 ft | 440 kts | 353° |
| 2026-05-08 11:37 | 49.77757 | 2.76309 | 23998 ft | 443 kts | 353° |
| 2026-05-08 11:38 | 49.80852 | 2.76044 | 24412 ft | 448 kts | 2° |
| 2026-05-08 11:38 | 49.83907 | 2.77034 | 24818 ft | 453 kts | 19° |
| 2026-05-08 11:38 | 49.86734 | 2.79358 | 25271 ft | 455 kts | 34° |
| 2026-05-08 11:38 | 49.89435 | 2.82129 | 25755 ft | 457 kts | 33° |
| 2026-05-08 11:39 | 49.92111 | 2.84792 | 26175 ft | 460 kts | 32° |
| 2026-05-08 11:39 | 49.94858 | 2.87500 | 26596 ft | 464 kts | 32° |
| 2026-05-08 11:39 | 49.97616 | 2.90213 | 27050 ft | 466 kts | 32° |
| 2026-05-08 11:39 | 50.00395 | 2.92949 | 27470 ft | 468 kts | 32° |
| 2026-05-08 11:40 | 50.03178 | 2.95690 | 27901 ft | 471 kts | 32° |
| 2026-05-08 11:40 | 50.05956 | 2.98431 | 28322 ft | 473 kts | 32° |
| 2026-05-08 11:40 | 50.08749 | 3.01190 | 28677 ft | 476 kts | 32° |
| 2026-05-08 11:40 | 50.11563 | 3.03974 | 29039 ft | 479 kts | 32° |
| 2026-05-08 11:41 | 50.14423 | 3.06807 | 29323 ft | 483 kts | 32° |
| 2026-05-08 11:41 | 50.17271 | 3.09632 | 29732 ft | 484 kts | 32° |
| 2026-05-08 11:41 | 50.20136 | 3.12479 | 30238 ft | 483 kts | 32° |
| 2026-05-08 11:41 | 50.22999 | 3.15239 | 30720 ft | 481 kts | 28° |
| 2026-05-08 11:42 | 50.26020 | 3.17397 | 31112 ft | 480 kts | 23° |
| 2026-05-08 11:42 | 50.29113 | 3.19558 | 31498 ft | 479 kts | 23° |
| 2026-05-08 11:42 | 50.32143 | 3.21680 | 31917 ft | 478 kts | 23° |
| 2026-05-08 11:42 | 50.35235 | 3.23851 | 32339 ft | 476 kts | 23° |
| 2026-05-08 11:43 | 50.38243 | 3.25966 | 32681 ft | 475 kts | 23° |
| 2026-05-08 11:43 | 50.41316 | 3.28172 | 33040 ft | 474 kts | 25° |
| 2026-05-08 11:43 | 50.44283 | 3.30509 | 33414 ft | 473 kts | 25° |
| 2026-05-08 11:43 | 50.47222 | 3.32810 | 33759 ft | 472 kts | 25° |
| 2026-05-08 11:44 | 50.50183 | 3.35129 | 34033 ft | 471 kts | 25° |
| 2026-05-08 11:44 | 50.53175 | 3.37347 | 34301 ft | 470 kts | 21° |
| 2026-05-08 11:44 | 50.56197 | 3.39397 | 34562 ft | 470 kts | 21° |
| 2026-05-08 11:44 | 50.59237 | 3.41481 | 34842 ft | 469 kts | 21° |
| 2026-05-08 11:45 | 50.62220 | 3.43535 | 35086 ft | 469 kts | 21° |
| 2026-05-08 11:45 | 50.65233 | 3.45613 | 35308 ft | 470 kts | 21° |
| 2026-05-08 11:45 | 50.68263 | 3.47705 | 35528 ft | 470 kts | 21° |
| 2026-05-08 11:45 | 50.71229 | 3.49757 | 35754 ft | 469 kts | 21° |
| 2026-05-08 11:46 | 50.74269 | 3.51863 | 36000 ft | 469 kts | 21° |
| 2026-05-08 11:46 | 50.77287 | 3.53957 | 36206 ft | 468 kts | 21° |
| 2026-05-08 11:46 | 50.80296 | 3.56047 | 36398 ft | 468 kts | 21° |
| 2026-05-08 11:46 | 50.83243 | 3.58097 | 36569 ft | 469 kts | 21° |
| 2026-05-08 11:47 | 50.86287 | 3.60218 | 36752 ft | 469 kts | 21° |
| 2026-05-08 11:47 | 50.89255 | 3.62289 | 36910 ft | 469 kts | 21° |
| 2026-05-08 11:47 | 50.92273 | 3.64407 | 37079 ft | 469 kts | 22° |
| 2026-05-08 11:47 | 50.95296 | 3.66580 | 37221 ft | 470 kts | 23° |
| 2026-05-08 11:48 | 50.98299 | 3.68736 | 37365 ft | 470 kts | 23° |
| 2026-05-08 11:48 | 51.01278 | 3.70878 | 37510 ft | 471 kts | 22° |
| 2026-05-08 11:48 | 51.04294 | 3.73048 | 37637 ft | 472 kts | 23° |
| 2026-05-08 11:48 | 51.07287 | 3.75206 | 37780 ft | 472 kts | 23° |
| 2026-05-08 11:49 | 51.10333 | 3.77404 | 37925 ft | 472 kts | 23° |
| 2026-05-08 11:49 | 51.13305 | 3.79554 | 38054 ft | 472 kts | 23° |
| 2026-05-08 11:49 | 51.16318 | 3.81733 | 38068 ft | 476 kts | 23° |
| 2026-05-08 11:50 | 51.22435 | 3.86171 | 38082 ft | 482 kts | 23° |
| 2026-05-08 11:50 | 51.28572 | 3.90650 | 38080 ft | 486 kts | 23° |
| 2026-05-08 11:51 | 51.34717 | 3.95152 | 38082 ft | 481 kts | 23° |
| 2026-05-08 11:51 | 51.40816 | 3.99634 | 38087 ft | 479 kts | 23° |
| 2026-05-08 11:52 | 51.46896 | 4.04186 | 38085 ft | 481 kts | 27° |
| 2026-05-08 11:52 | 51.49695 | 4.07285 | 38092 ft | 484 kts | 40° |
| 2026-05-08 11:52 | 51.52038 | 4.11139 | 38116 ft | 485 kts | 47° |
| 2026-05-08 11:53 | 51.56732 | 4.19066 | 38093 ft | 485 kts | 45° |
| 2026-05-08 11:53 | 51.61455 | 4.26861 | 38093 ft | 484 kts | 44° |
| 2026-05-08 11:54 | 51.66219 | 4.34733 | 38094 ft | 484 kts | 44° |
| 2026-05-08 11:54 | 51.70908 | 4.42503 | 38092 ft | 484 kts | 44° |
| 2026-05-08 11:55 | 51.75635 | 4.50361 | 38096 ft | 484 kts | 44° |
| 2026-05-08 11:55 | 51.80337 | 4.58202 | 38099 ft | 484 kts | 44° |
| 2026-05-08 11:56 | 51.85041 | 4.66072 | 38098 ft | 485 kts | 45° |
| 2026-05-08 11:56 | 51.89732 | 4.73945 | 38092 ft | 485 kts | 45° |
| 2026-05-08 11:57 | 51.94433 | 4.81860 | 38095 ft | 485 kts | 45° |
| 2026-05-08 11:57 | 51.99128 | 4.89791 | 38096 ft | 485 kts | 45° |
| 2026-05-08 11:58 | 52.03833 | 4.97766 | 38097 ft | 485 kts | 45° |
| 2026-05-08 11:58 | 52.08510 | 5.05717 | 38099 ft | 484 kts | 45° |
| 2026-05-08 11:59 | 52.13174 | 5.13669 | 38383 ft | 478 kts | 45° |
| 2026-05-08 11:59 | 52.15515 | 5.17495 | 38616 ft | 474 kts | 44° |
| 2026-05-08 11:59 | 52.20173 | 5.25119 | 38816 ft | 475 kts | 44° |
| 2026-05-08 12:00 | 52.22537 | 5.29005 | 38933 ft | 475 kts | 44° |
| 2026-05-08 12:00 | 52.24880 | 5.32861 | 39053 ft | 475 kts | 44° |
| 2026-05-08 12:00 | 52.29578 | 5.40613 | 39100 ft | 480 kts | 44° |
| 2026-05-08 12:01 | 52.34304 | 5.48437 | 39121 ft | 485 kts | 44° |
| 2026-05-08 12:01 | 52.39095 | 5.56393 | 39122 ft | 489 kts | 44° |
| 2026-05-08 12:02 | 52.43890 | 5.64383 | 39117 ft | 492 kts | 44° |
| 2026-05-08 12:02 | 52.48709 | 5.72441 | 39116 ft | 494 kts | 45° |
| 2026-05-08 12:03 | 52.53539 | 5.80543 | 39118 ft | 492 kts | 45° |
| 2026-05-08 12:03 | 52.58353 | 5.88645 | 39124 ft | 488 kts | 45° |
| 2026-05-08 12:04 | 52.63113 | 5.96683 | 39128 ft | 489 kts | 45° |
| 2026-05-08 12:04 | 52.67899 | 6.04791 | 39135 ft | 490 kts | 45° |
| 2026-05-08 12:05 | 52.72660 | 6.12886 | 39133 ft | 489 kts | 45° |
| 2026-05-08 12:05 | 52.77455 | 6.21065 | 39133 ft | 489 kts | 45° |
| 2026-05-08 12:06 | 52.82190 | 6.29167 | 39134 ft | 489 kts | 45° |
| 2026-05-08 12:06 | 52.86944 | 6.37331 | 39137 ft | 489 kts | 45° |
| 2026-05-08 12:07 | 52.91701 | 6.45528 | 39143 ft | 488 kts | 45° |
| 2026-05-08 12:07 | 52.96404 | 6.53657 | 39145 ft | 488 kts | 45° |
| 2026-05-08 12:08 | 53.01143 | 6.61876 | 39151 ft | 488 kts | 45° |
| 2026-05-08 12:08 | 53.05857 | 6.70081 | 39146 ft | 488 kts | 46° |
| 2026-05-08 12:09 | 53.10572 | 6.78317 | 39151 ft | 489 kts | 46° |
| 2026-05-08 12:09 | 53.15300 | 6.86602 | 39152 ft | 488 kts | 46° |
| 2026-05-08 12:10 | 53.20003 | 6.94872 | 39159 ft | 489 kts | 46° |
| 2026-05-08 12:10 | 53.24713 | 7.03181 | 39162 ft | 489 kts | 46° |
| 2026-05-08 12:11 | 53.29416 | 7.11508 | 39168 ft | 488 kts | 46° |
| 2026-05-08 12:11 | 53.34132 | 7.19887 | 39166 ft | 488 kts | 46° |
| 2026-05-08 12:12 | 53.38802 | 7.28211 | 39175 ft | 488 kts | 46° |
| 2026-05-08 12:12 | 53.43482 | 7.36583 | 39173 ft | 488 kts | 46° |
| 2026-05-08 12:13 | 53.48143 | 7.44949 | 39177 ft | 488 kts | 46° |
| 2026-05-08 12:13 | 53.52797 | 7.53331 | 39172 ft | 489 kts | 46° |
| 2026-05-08 12:14 | 53.57484 | 7.61805 | 39176 ft | 489 kts | 46° |
| 2026-05-08 12:14 | 53.62120 | 7.70213 | 39173 ft | 488 kts | 46° |
| 2026-05-08 12:15 | 53.66790 | 7.78713 | 39175 ft | 489 kts | 46° |
| 2026-05-08 12:15 | 53.71423 | 7.87175 | 39174 ft | 488 kts | 46° |
| 2026-05-08 12:16 | 53.76074 | 7.95699 | 39186 ft | 488 kts | 46° |
| 2026-05-08 12:16 | 53.80685 | 8.04181 | 39187 ft | 488 kts | 46° |
| 2026-05-08 12:17 | 53.85302 | 8.12703 | 39189 ft | 488 kts | 46° |
| 2026-05-08 12:17 | 53.89936 | 8.21287 | 39191 ft | 488 kts | 46° |
| 2026-05-08 12:18 | 53.94524 | 8.29815 | 39189 ft | 487 kts | 46° |
| 2026-05-08 12:18 | 53.99131 | 8.38408 | 39180 ft | 489 kts | 46° |
| 2026-05-08 12:19 | 54.03758 | 8.47071 | 39188 ft | 490 kts | 46° |
| 2026-05-08 12:19 | 54.08376 | 8.55746 | 39190 ft | 488 kts | 47° |
| 2026-05-08 12:20 | 54.12964 | 8.64397 | 39183 ft | 487 kts | 47° |
| 2026-05-08 12:20 | 54.17516 | 8.73011 | 39184 ft | 488 kts | 47° |
| 2026-05-08 12:21 | 54.22089 | 8.81695 | 39177 ft | 488 kts | 47° |
| 2026-05-08 12:21 | 54.26653 | 8.90394 | 39178 ft | 488 kts | 47° |
| 2026-05-08 12:22 | 54.31223 | 8.99135 | 39190 ft | 489 kts | 47° |
| 2026-05-08 12:22 | 54.35791 | 9.07902 | 39189 ft | 489 kts | 47° |
| 2026-05-08 12:23 | 54.40362 | 9.16708 | 39196 ft | 489 kts | 47° |
| 2026-05-08 12:23 | 54.44894 | 9.25470 | 39200 ft | 488 kts | 47° |
| 2026-05-08 12:24 | 54.49443 | 9.34299 | 39203 ft | 487 kts | 47° |
| 2026-05-08 12:24 | 54.53950 | 9.43077 | 39202 ft | 487 kts | 47° |
| 2026-05-08 12:25 | 54.58469 | 9.51908 | 39205 ft | 487 kts | 47° |
| 2026-05-08 12:25 | 54.63014 | 9.60825 | 39208 ft | 487 kts | 47° |
| 2026-05-08 12:26 | 54.67500 | 9.69657 | 39207 ft | 487 kts | 48° |
| 2026-05-08 12:26 | 54.72004 | 9.78559 | 39214 ft | 487 kts | 49° |
| 2026-05-08 12:27 | 54.76461 | 9.87399 | 39221 ft | 487 kts | 49° |
| 2026-05-08 12:27 | 54.80941 | 9.96347 | 39227 ft | 487 kts | 50° |
| 2026-05-08 12:28 | 54.85188 | 10.05535 | 39228 ft | 487 kts | 51° |
| 2026-05-08 12:28 | 54.89447 | 10.14809 | 39233 ft | 486 kts | 51° |
| 2026-05-08 12:29 | 54.93685 | 10.24067 | 39230 ft | 486 kts | 51° |
| 2026-05-08 12:29 | 54.97879 | 10.33265 | 39235 ft | 486 kts | 51° |
| 2026-05-08 12:30 | 55.02164 | 10.42696 | 39235 ft | 487 kts | 51° |
| 2026-05-08 12:30 | 55.06394 | 10.52042 | 39235 ft | 487 kts | 51° |
| 2026-05-08 12:31 | 55.10596 | 10.61364 | 39239 ft | 487 kts | 51° |
| 2026-05-08 12:31 | 55.14800 | 10.70725 | 39246 ft | 486 kts | 52° |
| 2026-05-08 12:32 | 55.19030 | 10.80179 | 39244 ft | 486 kts | 52° |
| 2026-05-08 12:32 | 55.23210 | 10.89558 | 39252 ft | 486 kts | 52° |
| 2026-05-08 12:33 | 55.27419 | 10.99037 | 39254 ft | 486 kts | 52° |
| 2026-05-08 12:33 | 55.31570 | 11.08419 | 39256 ft | 485 kts | 52° |
| 2026-05-08 12:34 | 55.35741 | 11.17888 | 39256 ft | 486 kts | 52° |
| 2026-05-08 12:34 | 55.39907 | 11.27378 | 39259 ft | 486 kts | 52° |
| 2026-05-08 12:35 | 55.44044 | 11.36844 | 39254 ft | 485 kts | 52° |
| 2026-05-08 12:35 | 55.48183 | 11.46348 | 39255 ft | 485 kts | 52° |
| 2026-05-08 12:36 | 55.52303 | 11.55843 | 39255 ft | 485 kts | 52° |
| 2026-05-08 12:36 | 55.56435 | 11.65401 | 39257 ft | 485 kts | 53° |
| 2026-05-08 12:37 | 55.60560 | 11.74985 | 39257 ft | 484 kts | 53° |
| 2026-05-08 12:37 | 55.64652 | 11.84530 | 39260 ft | 483 kts | 53° |
| 2026-05-08 12:38 | 55.68755 | 11.94137 | 39259 ft | 483 kts | 53° |
| 2026-05-08 12:38 | 55.72822 | 12.03696 | 39260 ft | 484 kts | 53° |
| 2026-05-08 12:39 | 55.76933 | 12.13396 | 39260 ft | 485 kts | 53° |
| 2026-05-08 12:39 | 55.81015 | 12.23067 | 39261 ft | 484 kts | 53° |
| 2026-05-08 12:40 | 55.85069 | 12.32711 | 39258 ft | 484 kts | 53° |
| 2026-05-08 12:40 | 55.89113 | 12.42366 | 39257 ft | 483 kts | 53° |
| 2026-05-08 12:41 | 55.93149 | 12.52044 | 39252 ft | 483 kts | 53° |
| 2026-05-08 12:41 | 55.97160 | 12.61697 | 39257 ft | 484 kts | 53° |
| 2026-05-08 12:42 | 56.01179 | 12.71410 | 39258 ft | 483 kts | 54° |
| 2026-05-08 12:42 | 56.05170 | 12.81090 | 39260 ft | 483 kts | 54° |
| 2026-05-08 12:43 | 56.09319 | 12.90668 | 39260 ft | 485 kts | 52° |
| 2026-05-08 12:43 | 56.13500 | 13.00328 | 39259 ft | 485 kts | 52° |
| 2026-05-08 12:44 | 56.17632 | 13.09918 | 39255 ft | 484 kts | 52° |
| 2026-05-08 12:44 | 56.21766 | 13.19555 | 39257 ft | 484 kts | 52° |
| 2026-05-08 12:45 | 56.25900 | 13.29228 | 39263 ft | 484 kts | 52° |
| 2026-05-08 12:45 | 56.30008 | 13.38879 | 39260 ft | 484 kts | 52° |
| 2026-05-08 12:46 | 56.34125 | 13.48589 | 39251 ft | 484 kts | 52° |
| 2026-05-08 12:46 | 56.38270 | 13.58404 | 39246 ft | 485 kts | 52° |
| 2026-05-08 12:47 | 56.42374 | 13.68160 | 39245 ft | 484 kts | 53° |
| 2026-05-08 12:47 | 56.46447 | 13.77884 | 39244 ft | 483 kts | 53° |
| 2026-05-08 12:48 | 56.50526 | 13.87662 | 39240 ft | 484 kts | 53° |
| 2026-05-08 12:48 | 56.54592 | 13.97444 | 39240 ft | 485 kts | 53° |
| 2026-05-08 12:49 | 56.58639 | 14.07224 | 39250 ft | 485 kts | 53° |
| 2026-05-08 12:49 | 56.62724 | 14.17134 | 39240 ft | 486 kts | 53° |
| 2026-05-08 12:50 | 56.66782 | 14.27020 | 39255 ft | 484 kts | 53° |
| 2026-05-08 12:50 | 56.70810 | 14.36873 | 39255 ft | 484 kts | 53° |
| 2026-05-08 12:51 | 56.76859 | 14.51745 | 39251 ft | 483 kts | 53° |
| 2026-05-08 12:52 | 56.80902 | 14.61735 | 39266 ft | 484 kts | 53° |
| 2026-05-08 12:52 | 56.86962 | 14.76789 | 39269 ft | 486 kts | 54° |
| 2026-05-08 12:53 | 56.90983 | 14.86827 | 39275 ft | 486 kts | 54° |
| 2026-05-08 12:53 | 56.94989 | 14.96872 | 39266 ft | 486 kts | 54° |
| 2026-05-08 12:54 | 56.98998 | 15.06963 | 39274 ft | 485 kts | 54° |
| 2026-05-08 12:54 | 57.02998 | 15.17078 | 39272 ft | 484 kts | 54° |
| 2026-05-08 12:55 | 57.06979 | 15.27187 | 39277 ft | 485 kts | 54° |
| 2026-05-08 12:55 | 57.10936 | 15.37275 | 39278 ft | 485 kts | 54° |
| 2026-05-08 12:56 | 57.14878 | 15.47370 | 39285 ft | 486 kts | 54° |
| 2026-05-08 12:56 | 57.18835 | 15.57540 | 39291 ft | 485 kts | 54° |
| 2026-05-08 12:57 | 57.22777 | 15.67718 | 39280 ft | 485 kts | 55° |
| 2026-05-08 12:57 | 57.26683 | 15.77848 | 39281 ft | 484 kts | 56° |
| 2026-05-08 12:58 | 57.30613 | 15.88080 | 39286 ft | 484 kts | 56° |
| 2026-05-08 12:58 | 57.34568 | 15.98422 | 39314 ft | 484 kts | 56° |
| 2026-05-08 12:59 | 57.38501 | 16.08752 | 39307 ft | 485 kts | 56° |
| 2026-05-08 12:59 | 57.42410 | 16.19061 | 39308 ft | 485 kts | 55° |
| 2026-05-08 13:00 | 57.46323 | 16.29428 | 39297 ft | 485 kts | 55° |
| 2026-05-08 13:00 | 57.50209 | 16.39767 | 39319 ft | 485 kts | 55° |
| 2026-05-08 13:01 | 57.54103 | 16.50169 | 39322 ft | 484 kts | 55° |
| 2026-05-08 13:01 | 57.57950 | 16.60494 | 39316 ft | 484 kts | 55° |
| 2026-05-08 13:02 | 57.61794 | 16.70852 | 39317 ft | 484 kts | 56° |
| 2026-05-08 13:02 | 57.65620 | 16.81209 | 39314 ft | 484 kts | 56° |
| 2026-05-08 13:03 | 57.69459 | 16.91646 | 39336 ft | 485 kts | 56° |
| 2026-05-08 13:03 | 57.73332 | 17.02220 | 39328 ft | 484 kts | 56° |
| 2026-05-08 13:04 | 57.77154 | 17.12702 | 39324 ft | 484 kts | 56° |
| 2026-05-08 13:04 | 57.80971 | 17.23215 | 39338 ft | 484 kts | 56° |
| 2026-05-08 13:05 | 57.84788 | 17.33778 | 39335 ft | 484 kts | 56° |
| 2026-05-08 13:05 | 57.88576 | 17.44300 | 39345 ft | 484 kts | 56° |
| 2026-05-08 13:06 | 57.92383 | 17.54927 | 39343 ft | 484 kts | 56° |
| 2026-05-08 13:06 | 57.96170 | 17.65547 | 39350 ft | 484 kts | 57° |
| 2026-05-08 13:07 | 57.99910 | 17.76077 | 39331 ft | 484 kts | 57° |
| 2026-05-08 13:07 | 58.03715 | 17.86842 | 39350 ft | 485 kts | 57° |
| 2026-05-08 13:08 | 58.07456 | 17.97471 | 39337 ft | 484 kts | 57° |
| 2026-05-08 13:08 | 58.11203 | 18.08166 | 39347 ft | 484 kts | 57° |
| 2026-05-08 13:09 | 58.14954 | 18.18921 | 39342 ft | 483 kts | 57° |
| 2026-05-08 13:09 | 58.18651 | 18.29567 | 39344 ft | 484 kts | 57° |
| 2026-05-08 13:10 | 58.22384 | 18.40364 | 39340 ft | 485 kts | 57° |
| 2026-05-08 13:10 | 58.26086 | 18.51115 | 39338 ft | 484 kts | 57° |
| 2026-05-08 13:11 | 58.29781 | 18.61874 | 39337 ft | 485 kts | 57° |
| 2026-05-08 13:11 | 58.33483 | 18.72702 | 39347 ft | 485 kts | 58° |
| 2026-05-08 13:12 | 58.37179 | 18.83563 | 39339 ft | 486 kts | 58° |
| 2026-05-08 13:12 | 58.40860 | 18.94428 | 39328 ft | 485 kts | 58° |
| 2026-05-08 13:13 | 58.44567 | 19.05423 | 39345 ft | 484 kts | 58° |
| 2026-05-08 13:13 | 58.48245 | 19.16382 | 39335 ft | 485 kts | 58° |
| 2026-05-08 13:14 | 58.51913 | 19.27361 | 39343 ft | 487 kts | 58° |
| 2026-05-08 13:14 | 58.55577 | 19.38383 | 39344 ft | 486 kts | 58° |
| 2026-05-08 13:15 | 58.59213 | 19.49370 | 39356 ft | 485 kts | 58° |
| 2026-05-08 13:15 | 58.62855 | 19.60422 | 39350 ft | 485 kts | 58° |
| 2026-05-08 13:16 | 58.66478 | 19.71474 | 39362 ft | 485 kts | 58° |
| 2026-05-08 13:16 | 58.70071 | 19.82482 | 39347 ft | 485 kts | 58° |
| 2026-05-08 13:17 | 58.73676 | 19.93582 | 39356 ft | 487 kts | 58° |
| 2026-05-08 13:17 | 58.77258 | 20.04661 | 39371 ft | 487 kts | 58° |
| 2026-05-08 13:18 | 58.80829 | 20.15760 | 39367 ft | 486 kts | 58° |
| 2026-05-08 13:18 | 58.84392 | 20.26883 | 39362 ft | 486 kts | 58° |
| 2026-05-08 13:19 | 58.87996 | 20.38192 | 39358 ft | 485 kts | 58° |
| 2026-05-08 13:19 | 58.91555 | 20.49413 | 39376 ft | 485 kts | 58° |
| 2026-05-08 13:20 | 58.95115 | 20.60689 | 39365 ft | 485 kts | 58° |
| 2026-05-08 13:20 | 58.98655 | 20.71958 | 39349 ft | 486 kts | 59° |
| 2026-05-08 13:21 | 59.02194 | 20.83277 | 39370 ft | 487 kts | 59° |
| 2026-05-08 13:21 | 59.05734 | 20.94609 | 39357 ft | 485 kts | 59° |
| 2026-05-08 13:22 | 59.09225 | 21.05668 | 39342 ft | 472 kts | 59° |
| 2026-05-08 13:22 | 59.12678 | 21.16668 | 38585 ft | 481 kts | 59° |
| 2026-05-08 13:23 | 59.14445 | 21.22317 | 37783 ft | 483 kts | 59° |
| 2026-05-08 13:23 | 59.16200 | 21.27942 | 37157 ft | 480 kts | 59° |
| 2026-05-08 13:23 | 59.17939 | 21.33528 | 36565 ft | 478 kts | 59° |
| 2026-05-08 13:23 | 59.19661 | 21.39070 | 36041 ft | 477 kts | 59° |
| 2026-05-08 13:24 | 59.21389 | 21.44652 | 35462 ft | 476 kts | 59° |
| 2026-05-08 13:24 | 59.23091 | 21.50158 | 34805 ft | 475 kts | 59° |
| 2026-05-08 13:24 | 59.24815 | 21.55754 | 33974 ft | 476 kts | 59° |
| 2026-05-08 13:24 | 59.26500 | 21.61245 | 32996 ft | 480 kts | 59° |
| 2026-05-08 13:25 | 59.28234 | 21.66899 | 31920 ft | 485 kts | 60° |
| 2026-05-08 13:25 | 59.29955 | 21.72532 | 31169 ft | 484 kts | 60° |
| 2026-05-08 13:25 | 59.31696 | 21.78234 | 30581 ft | 481 kts | 60° |
| 2026-05-08 13:25 | 59.33420 | 21.83899 | 29997 ft | 478 kts | 60° |
| 2026-05-08 13:26 | 59.35117 | 21.89481 | 29430 ft | 475 kts | 59° |
| 2026-05-08 13:26 | 59.36807 | 21.95052 | 28842 ft | 472 kts | 59° |
| 2026-05-08 13:26 | 59.38479 | 22.00573 | 28233 ft | 470 kts | 59° |
| 2026-05-08 13:26 | 59.40158 | 22.06140 | 27648 ft | 466 kts | 59° |
| 2026-05-08 13:27 | 59.41817 | 22.11644 | 27106 ft | 461 kts | 59° |
| 2026-05-08 13:27 | 59.43448 | 22.17076 | 26621 ft | 456 kts | 59° |
| 2026-05-08 13:27 | 59.45073 | 22.22494 | 26148 ft | 450 kts | 59° |
| 2026-05-08 13:27 | 59.46657 | 22.27792 | 25699 ft | 444 kts | 59° |
| 2026-05-08 13:28 | 59.48231 | 22.33066 | 25236 ft | 438 kts | 59° |
| 2026-05-08 13:28 | 59.49769 | 22.38228 | 24769 ft | 433 kts | 59° |
| 2026-05-08 13:28 | 59.51285 | 22.43335 | 24271 ft | 428 kts | 59° |
| 2026-05-08 13:28 | 59.52808 | 22.48479 | 23760 ft | 424 kts | 59° |
| 2026-05-08 13:29 | 59.54291 | 22.53505 | 23251 ft | 420 kts | 58° |
| 2026-05-08 13:29 | 59.55765 | 22.58513 | 22739 ft | 416 kts | 58° |
| 2026-05-08 13:29 | 59.57229 | 22.63492 | 22225 ft | 411 kts | 58° |
| 2026-05-08 13:29 | 59.58653 | 22.68341 | 21734 ft | 406 kts | 59° |
| 2026-05-08 13:30 | 59.60061 | 22.73154 | 21246 ft | 401 kts | 59° |
| 2026-05-08 13:30 | 59.61467 | 22.77966 | 20773 ft | 396 kts | 58° |
| 2026-05-08 13:30 | 59.62858 | 22.82743 | 20306 ft | 390 kts | 58° |
| 2026-05-08 13:30 | 59.64212 | 22.87397 | 19847 ft | 384 kts | 58° |
| 2026-05-08 13:31 | 59.65541 | 22.91973 | 19414 ft | 378 kts | 58° |
| 2026-05-08 13:31 | 59.66842 | 22.96461 | 18975 ft | 372 kts | 58° |
| 2026-05-08 13:31 | 59.68150 | 23.00984 | 18540 ft | 366 kts | 58° |
| 2026-05-08 13:31 | 59.69409 | 23.05341 | 18095 ft | 361 kts | 57° |
| 2026-05-08 13:32 | 59.70669 | 23.09703 | 17684 ft | 356 kts | 57° |
| 2026-05-08 13:32 | 59.71892 | 23.13945 | 17249 ft | 352 kts | 57° |
| 2026-05-08 13:32 | 59.73111 | 23.18187 | 16823 ft | 348 kts | 57° |
| 2026-05-08 13:32 | 59.74299 | 23.22321 | 16401 ft | 346 kts | 57° |
| 2026-05-08 13:33 | 59.75497 | 23.26504 | 15963 ft | 343 kts | 57° |
| 2026-05-08 13:33 | 59.76674 | 23.30619 | 15526 ft | 341 kts | 57° |
| 2026-05-08 13:33 | 59.77853 | 23.34751 | 15084 ft | 338 kts | 57° |
| 2026-05-08 13:33 | 59.79006 | 23.38794 | 14643 ft | 336 kts | 57° |
| 2026-05-08 13:34 | 59.80150 | 23.42814 | 14196 ft | 333 kts | 58° |
| 2026-05-08 13:34 | 59.81303 | 23.46878 | 13747 ft | 331 kts | 57° |
| 2026-05-08 13:34 | 59.82430 | 23.50852 | 13292 ft | 329 kts | 58° |
| 2026-05-08 13:34 | 59.83560 | 23.54842 | 12841 ft | 326 kts | 58° |
| 2026-05-08 13:35 | 59.84680 | 23.58809 | 12402 ft | 324 kts | 58° |
| 2026-05-08 13:35 | 59.85780 | 23.62714 | 11982 ft | 320 kts | 58° |
| 2026-05-08 13:35 | 59.86879 | 23.66623 | 11571 ft | 317 kts | 59° |
| 2026-05-08 13:35 | 59.87945 | 23.70421 | 11297 ft | 309 kts | 59° |
| 2026-05-08 13:36 | 59.88997 | 23.74179 | 11252 ft | 302 kts | 59° |
| 2026-05-08 13:36 | 59.90006 | 23.77789 | 11150 ft | 290 kts | 59° |
| 2026-05-08 13:36 | 59.90984 | 23.81292 | 11053 ft | 279 kts | 59° |
| 2026-05-08 13:36 | 59.91711 | 23.84894 | 10847 ft | 275 kts | 70° |
| 2026-05-08 13:37 | 59.92289 | 23.88567 | 10516 ft | 274 kts | 70° |
| 2026-05-08 13:37 | 59.92870 | 23.92225 | 10295 ft | 269 kts | 70° |
| 2026-05-08 13:37 | 59.93425 | 23.95719 | 10137 ft | 262 kts | 70° |
| 2026-05-08 13:37 | 59.93990 | 23.99280 | 9849 ft | 261 kts | 70° |
| 2026-05-08 13:38 | 59.94537 | 24.02739 | 9585 ft | 258 kts | 70° |
| 2026-05-08 13:38 | 59.95082 | 24.06189 | 9340 ft | 256 kts | 70° |
| 2026-05-08 13:38 | 59.95612 | 24.09555 | 9104 ft | 253 kts | 70° |
| 2026-05-08 13:38 | 59.96145 | 24.12942 | 8871 ft | 251 kts | 69° |
| 2026-05-08 13:39 | 59.96672 | 24.16298 | 8626 ft | 248 kts | 69° |
| 2026-05-08 13:39 | 59.97190 | 24.19601 | 8395 ft | 246 kts | 69° |
| 2026-05-08 13:39 | 59.97702 | 24.22871 | 8166 ft | 243 kts | 69° |
| 2026-05-08 13:39 | 59.98219 | 24.26175 | 7843 ft | 245 kts | 69° |
| 2026-05-08 13:40 | 59.98723 | 24.29394 | 7696 ft | 239 kts | 69° |
| 2026-05-08 13:40 | 59.99220 | 24.32576 | 7481 ft | 237 kts | 69° |
| 2026-05-08 13:40 | 59.99714 | 24.35751 | 7265 ft | 235 kts | 69° |
| 2026-05-08 13:40 | 60.00201 | 24.38886 | 7056 ft | 233 kts | 69° |
| 2026-05-08 13:41 | 60.00680 | 24.41979 | 6946 ft | 230 kts | 69° |
| 2026-05-08 13:41 | 60.01161 | 24.45080 | 6875 ft | 224 kts | 69° |
| 2026-05-08 13:41 | 60.01607 | 24.47972 | 6782 ft | 213 kts | 69° |
| 2026-05-08 13:41 | 60.02030 | 24.50786 | 6576 ft | 212 kts | 68° |
| 2026-05-08 13:42 | 60.02501 | 24.53694 | 5982 ft | 223 kts | 68° |
| 2026-05-08 13:42 | 60.02987 | 24.56707 | 5431 ft | 228 kts | 69° |
| 2026-05-08 13:42 | 60.03461 | 24.59661 | 5292 ft | 214 kts | 68° |
| 2026-05-08 13:42 | 60.04232 | 24.62044 | 5137 ft | 197 kts | 36° |
| 2026-05-08 13:43 | 60.05376 | 24.63395 | 4968 ft | 182 kts | 20° |
| 2026-05-08 13:43 | 60.06586 | 24.64117 | 4857 ft | 179 kts | 12° |
| 2026-05-08 13:43 | 60.07817 | 24.64570 | 4646 ft | 177 kts | 8° |
| 2026-05-08 13:43 | 60.09056 | 24.64891 | 4436 ft | 174 kts | 7° |
| 2026-05-08 13:44 | 60.10230 | 24.65139 | 4232 ft | 163 kts | 7° |
| 2026-05-08 13:44 | 60.11299 | 24.65341 | 4134 ft | 140 kts | 7° |
| 2026-05-08 13:44 | 60.12260 | 24.65515 | 3880 ft | 132 kts | 7° |
| 2026-05-08 13:44 | 60.13171 | 24.65677 | 3681 ft | 127 kts | 7° |
| 2026-05-08 13:45 | 60.14064 | 24.65834 | 3498 ft | 127 kts | 7° |
| 2026-05-08 13:45 | 60.14947 | 24.65988 | 3467 ft | 126 kts | 7° |
| 2026-05-08 13:45 | 60.15842 | 24.66145 | 3433 ft | 128 kts | 7° |
| 2026-05-08 13:45 | 60.16745 | 24.66300 | 3395 ft | 129 kts | 6° |
| 2026-05-08 13:46 | 60.17655 | 24.66457 | 3354 ft | 129 kts | 6° |
| 2026-05-08 13:46 | 60.18547 | 24.66611 | 3307 ft | 129 kts | 6° |
| 2026-05-08 13:46 | 60.19456 | 24.66767 | 3253 ft | 129 kts | 6° |
| 2026-05-08 13:46 | 60.20357 | 24.66967 | 3189 ft | 130 kts | 14° |
| 2026-05-08 13:47 | 60.21095 | 24.68006 | 3069 ft | 132 kts | 50° |
| 2026-05-08 13:47 | 60.21683 | 24.69422 | 2924 ft | 131 kts | 48° |
| 2026-05-08 13:47 | 60.22314 | 24.70793 | 2758 ft | 130 kts | 45° |
| 2026-05-08 13:47 | 60.22940 | 24.72159 | 2588 ft | 130 kts | 46° |
| 2026-05-08 13:48 | 60.23556 | 24.73496 | 2417 ft | 130 kts | 46° |
| 2026-05-08 13:48 | 60.24185 | 24.74863 | 2240 ft | 131 kts | 46° |
| 2026-05-08 13:48 | 60.24808 | 24.76221 | 2059 ft | 132 kts | 46° |
| 2026-05-08 13:48 | 60.25433 | 24.77585 | 1884 ft | 132 kts | 46° |
| 2026-05-08 13:49 | 60.26054 | 24.78936 | 1718 ft | 131 kts | 46° |
| 2026-05-08 13:49 | 60.26666 | 24.80324 | 1575 ft | 131 kts | 47° |
| 2026-05-08 13:49 | 60.27288 | 24.81675 | 1411 ft | 133 kts | 44° |
| 2026-05-08 13:49 | 60.27913 | 24.83008 | 1194 ft | 132 kts | 47° |
| 2026-05-08 13:50 | 60.28546 | 24.84378 | 962 ft | 135 kts | 48° |
| 2026-05-08 13:50 | 60.29169 | 24.85759 | 774 ft | 131 kts | 46° |
| 2026-05-08 13:50 | 60.29784 | 24.87151 | 599 ft | 131 kts | 45° |
| 2026-05-08 13:50 | 60.30430 | 24.88545 | 456 ft | 131 kts | 44° |
| 2026-05-08 13:51 | 60.31076 | 24.89919 | 272 ft | 132 kts | 45° |
| 2026-05-08 13:51 | 60.31694 | 24.91273 | 171 ft | 127 kts | 47° |
| 2026-05-08 13:51 | 60.32154 | 24.92266 | 186 ft | 66 kts | 46° |
| 2026-05-08 13:51 | 60.32362 | 24.92746 | 191 ft | 34 kts | 51° |
| 2026-05-08 13:52 | 60.32451 | 24.93157 | 196 ft | 30 kts | 78° |
| 2026-05-08 13:52 | 60.32466 | 24.93306 | 196 ft | 0 kts | 78° |
| 2026-05-08 13:53 | 60.32473 | 24.93377 | 197 ft | 12 kts | 77° |
| 2026-05-08 13:53 | 60.32502 | 24.93630 | 197 ft | 22 kts | 77° |
| 2026-05-08 13:54 | 60.32487 | 24.93796 | 197 ft | 13 kts | 219° |
| 2026-05-08 13:54 | 60.32395 | 24.93603 | 195 ft | 24 kts | 227° |
| 2026-05-08 13:54 | 60.32252 | 24.93289 | 192 ft | 32 kts | 227° |
| 2026-05-08 13:54 | 60.32092 | 24.92936 | 187 ft | 34 kts | 227° |
| 2026-05-08 13:55 | 60.31943 | 24.92608 | 187 ft | 26 kts | 227° |
| 2026-05-08 13:55 | 60.31813 | 24.92324 | 184 ft | 24 kts | 222° |
| 2026-05-08 13:55 | 60.31532 | 24.92722 | 193 ft | 17 kts | 139° |
| 2026-05-08 13:56 | 60.31521 | 24.92740 | 193 ft | 0 kts | 138° |
| 2026-05-08 13:57 | 60.31521 | 24.92741 | 193 ft | 0 kts | 138° |
| 2026-05-08 13:57 | 60.31511 | 24.92759 | 193 ft | 7 kts | 138° |
| 2026-05-08 13:58 | 60.31439 | 24.92892 | 194 ft | 20 kts | 137° |
| 2026-05-08 13:58 | 60.31310 | 24.93131 | 191 ft | 27 kts | 137° |
| 2026-05-08 13:58 | 60.31180 | 24.93372 | 179 ft | 26 kts | 137° |
| 2026-05-08 13:58 | 60.31024 | 24.93660 | 167 ft | 29 kts | 137° |
| 2026-05-08 13:59 | 60.31010 | 24.93963 | 170 ft | 12 kts | 83° |
| 2026-05-08 13:59 | 60.31005 | 24.94153 | 171 ft | 17 kts | 59° |
| 2026-05-08 13:59 | 60.31094 | 24.94360 | 170 ft | 21 kts | 47° |
| 2026-05-08 13:59 | 60.31204 | 24.94603 | 168 ft | 24 kts | 47° |
| 2026-05-08 14:00 | 60.31220 | 24.94820 | 171 ft | 16 kts | 133° |
| 2026-05-08 14:00 | 60.31144 | 24.94955 | 178 ft | 13 kts | 141° |
| 2026-05-08 14:00 | 60.31052 | 24.95094 | 187 ft | 21 kts | 138° |
| 2026-05-08 14:00 | 60.31034 | 24.95346 | 194 ft | 21 kts | 41° |
| 2026-05-08 14:01 | 60.31139 | 24.95556 | 194 ft | 21 kts | 41° |
| 2026-05-08 14:01 | 60.31233 | 24.95774 | 193 ft | 19 kts | 75° |
| 2026-05-08 14:01 | 60.31215 | 24.95943 | 195 ft | 4 kts | 118° |
| 2026-05-08 14:01 | 60.31197 | 24.95984 | 196 ft | 3 kts | 135° |
| 2026-05-08 14:02 | 60.31179 | 24.96019 | 197 ft | 5 kts | 137° |
| 2026-05-08 14:02 | 60.31154 | 24.96068 | 197 ft | 0 kts | 137° |